createdAt,value
2023-04-21T00:02:09.805Z,22.45
2023-04-21T00:04:39.000Z,21.20
2023-04-21T00:07:07.501Z,22.50
2023-04-21T00:09:35.715Z,22.08
2023-04-21T00:12:03.800Z,23.50
2023-04-21T00:14:32.195Z,23.23
2023-04-21T00:17:01.800Z,22.88
2023-04-21T00:19:30.098Z,21.27
2023-04-21T00:21:59.997Z,25.05
2023-04-21T00:24:28.396Z,23.30
2023-04-21T00:26:56.509Z,22.83
2023-04-21T00:29:24.800Z,23.38
2023-04-21T00:31:53.324Z,23.65
2023-04-21T00:34:23.469Z,22.75
2023-04-21T00:36:51.733Z,24.65
2023-04-21T00:39:20.257Z,22.35
2023-04-21T00:41:48.510Z,23.42
2023-04-21T00:44:17.060Z,23.98
2023-04-21T00:46:45.621Z,25.75
2023-04-21T00:49:14.402Z,24.23
2023-04-21T00:51:44.678Z,23.83
2023-04-21T00:54:14.544Z,23.95
2023-04-21T00:56:42.937Z,23.38
2023-04-21T00:59:11.407Z,22.63
2023-04-21T01:01:40.128Z,21.33
2023-04-21T01:04:10.370Z,22.65
2023-04-21T01:06:39.323Z,25.13
2023-04-21T01:09:08.871Z,22.95
2023-04-21T01:11:37.193Z,24.40
2023-04-21T01:14:05.640Z,23.30
2023-04-21T01:16:34.485Z,23.40
2023-04-21T01:19:05.284Z,25.50
2023-04-21T01:21:41.775Z,23.73
2023-04-21T01:24:10.151Z,21.85
2023-04-21T01:26:38.249Z,23.73
2023-04-21T01:29:07.106Z,25.25
2023-04-21T01:31:35.731Z,23.73
2023-04-21T01:34:05.449Z,25.20
2023-04-21T01:36:33.903Z,26.25
2023-04-21T01:39:04.229Z,24.98
2023-04-21T01:41:32.974Z,25.25
2023-04-21T01:44:01.467Z,24.27
2023-04-21T01:46:29.824Z,24.67
2023-04-21T01:48:58.515Z,25.67
2023-04-21T01:51:27.998Z,25.10
2023-04-21T01:53:56.125Z,24.67
2023-04-21T01:56:26.178Z,24.90
2023-04-21T01:58:54.503Z,26.63
2023-04-21T02:01:22.758Z,26.52
2023-04-21T02:03:51.428Z,27.08
2023-04-21T02:06:20.043Z,28.50
2023-04-21T02:08:48.169Z,28.75
2023-04-21T02:11:16.695Z,29.02
2023-04-21T02:13:46.902Z,30.52
2023-04-21T02:16:15.122Z,30.52
2023-04-21T02:18:44.688Z,29.80
2023-04-21T02:21:13.086Z,29.55
2023-04-21T02:23:41.706Z,32.20
2023-04-21T02:26:10.448Z,33.03
2023-04-21T02:28:38.910Z,33.63
2023-04-21T02:31:08.611Z,36.25
2023-04-21T02:33:37.369Z,36.35
2023-04-21T02:36:06.564Z,35.63
2023-04-21T02:38:35.108Z,36.97
2023-04-21T02:41:03.262Z,38.83
2023-04-21T02:43:31.855Z,38.50
2023-04-21T02:45:59.964Z,38.47
2023-04-21T02:48:29.462Z,38.50
2023-04-21T02:50:58.216Z,40.67
2023-04-21T02:53:26.330Z,41.67
2023-04-21T02:55:54.491Z,42.58
2023-04-21T02:58:23.226Z,44.03
2023-04-21T03:00:51.640Z,43.67
2023-04-21T03:03:20.154Z,43.42
2023-04-21T03:05:50.440Z,48.00
2023-04-21T03:08:18.504Z,45.03
2023-04-21T03:10:46.727Z,47.50
2023-04-21T03:13:15.158Z,46.25
2023-04-21T03:15:43.268Z,47.80
2023-04-21T03:18:11.540Z,51.58
2023-04-21T03:20:40.284Z,47.80
2023-04-21T03:23:09.895Z,52.25
2023-04-21T03:25:39.926Z,51.00
2023-04-21T03:28:08.147Z,49.90
2023-04-21T03:30:36.324Z,50.85
2023-04-21T03:33:05.041Z,53.20
2023-04-21T03:35:34.570Z,51.15
2023-04-21T03:38:03.992Z,51.42
2023-04-21T03:40:34.063Z,53.97
2023-04-21T03:43:02.250Z,57.45
2023-04-21T03:45:30.473Z,52.63
2023-04-21T03:47:58.756Z,54.88
2023-04-21T03:50:27.166Z,55.42
2023-04-21T03:52:55.615Z,56.80
2023-04-21T03:55:23.845Z,56.78
2023-04-21T03:57:53.523Z,56.03
2023-04-21T04:00:22.212Z,60.55
2023-04-21T04:02:50.435Z,60.58
2023-04-21T04:05:18.884Z,60.95
2023-04-21T04:07:47.198Z,62.13
2023-04-21T04:10:15.600Z,63.05
2023-04-21T04:12:43.842Z,65.78
2023-04-21T04:15:13.702Z,65.25
2023-04-21T04:17:41.862Z,66.97
2023-04-21T04:20:10.892Z,67.88
2023-04-21T04:22:39.337Z,67.57
2023-04-21T04:25:07.638Z,73.65
2023-04-21T04:27:35.863Z,73.75
2023-04-21T04:30:04.630Z,74.93
2023-04-21T04:32:34.675Z,73.78
2023-04-21T04:35:03.199Z,75.45
2023-04-21T04:37:31.848Z,74.20
2023-04-21T04:39:59.942Z,76.80
2023-04-21T04:42:29.077Z,73.68
2023-04-21T04:44:59.525Z,73.80
2023-04-21T04:47:27.664Z,75.45
2023-04-21T04:49:57.282Z,74.70
2023-04-21T04:52:25.687Z,78.95
2023-04-21T04:54:53.800Z,78.60
2023-04-21T04:57:22.056Z,79.30
2023-04-21T04:59:51.678Z,78.13
2023-04-21T05:02:19.977Z,80.47
2023-04-21T05:04:48.576Z,85.93
2023-04-21T05:07:18.726Z,79.95
2023-04-21T05:09:46.965Z,84.88
2023-04-21T05:12:15.208Z,82.53
2023-04-21T05:14:43.454Z,82.93
2023-04-21T05:17:11.589Z,85.47
2023-04-21T05:19:39.830Z,83.00
2023-04-21T05:22:08.153Z,82.13
2023-04-21T05:24:37.858Z,81.68
2023-04-21T05:27:06.183Z,85.63
2023-04-21T05:29:34.767Z,87.28
2023-04-21T05:32:02.949Z,86.53
2023-04-21T05:34:31.217Z,86.75
2023-04-21T05:36:59.566Z,88.35
2023-04-21T05:39:28.997Z,88.65
2023-04-21T05:41:58.772Z,80.85
2023-04-21T05:44:27.213Z,83.72
2023-04-21T05:46:55.366Z,83.65
2023-04-21T05:49:23.755Z,81.82
2023-04-21T05:51:51.941Z,80.30
2023-04-21T05:54:20.344Z,82.72
2023-04-21T05:56:49.022Z,80.95
2023-04-21T05:59:18.989Z,78.93
2023-04-21T06:01:47.318Z,79.85
2023-04-21T06:04:15.750Z,81.75
2023-04-21T06:06:44.400Z,81.55
2023-04-21T06:09:15.775Z,79.53
2023-04-21T06:11:43.935Z,82.07
2023-04-21T06:14:12.025Z,95.97
2023-04-21T06:16:41.748Z,73.45
2023-04-21T06:19:10.270Z,72.18
2023-04-21T06:21:38.468Z,73.00
2023-04-21T06:24:07.436Z,74.32
2023-04-21T06:26:36.118Z,68.45
2023-04-21T06:29:04.215Z,67.80
2023-04-21T06:31:32.378Z,66.78
2023-04-21T06:34:02.431Z,68.55
2023-04-21T06:36:30.917Z,68.07
2023-04-21T06:38:59.008Z,69.65
2023-04-21T06:41:27.710Z,65.47
2023-04-21T06:43:56.265Z,61.83
2023-04-21T06:46:24.494Z,58.72
2023-04-21T06:48:52.988Z,56.17
2023-04-21T06:51:22.722Z,57.38
2023-04-21T06:53:51.293Z,53.25
2023-04-21T06:56:19.611Z,48.70
2023-04-21T06:58:47.981Z,43.45
2023-04-21T07:01:16.462Z,39.45
2023-04-21T07:03:45.068Z,38.90
2023-04-21T07:06:13.475Z,36.58
2023-04-21T07:08:43.300Z,37.33
2023-04-21T07:11:11.856Z,34.45
2023-04-21T07:13:39.995Z,31.92
2023-04-21T07:16:08.382Z,34.03
2023-04-21T07:18:37.411Z,32.22
2023-04-21T07:21:05.701Z,31.15
2023-04-21T07:23:33.856Z,31.20
2023-04-21T07:26:03.749Z,30.40
2023-04-21T07:28:31.816Z,29.88
2023-04-21T07:31:01.495Z,30.50
2023-04-21T07:33:31.685Z,29.90
2023-04-21T07:36:00.240Z,30.88
2023-04-21T07:38:28.620Z,28.73
2023-04-21T07:40:56.952Z,29.50
2023-04-21T07:43:26.892Z,28.05
2023-04-21T07:45:55.074Z,28.58
2023-04-21T07:48:23.641Z,28.98
2023-04-21T07:50:53.328Z,28.88
2023-04-21T07:53:21.880Z,29.42
2023-04-21T07:55:50.270Z,28.92
2023-04-21T07:58:18.390Z,28.80
2023-04-21T08:00:48.086Z,30.15
2023-04-21T08:03:16.682Z,29.63
2023-04-21T08:05:45.965Z,29.88
2023-04-21T08:08:20.263Z,30.05
2023-04-21T08:10:48.398Z,29.73
2023-04-21T08:13:16.853Z,30.98
2023-04-21T08:15:45.193Z,30.50
2023-04-21T08:18:17.837Z,30.25
2023-04-21T08:20:47.903Z,29.80
2023-04-21T08:23:16.792Z,30.60
2023-04-21T08:25:46.105Z,30.70
2023-04-21T08:28:15.656Z,30.33
2023-04-21T08:30:44.038Z,27.55
2023-04-21T08:33:14.003Z,30.45
2023-04-21T08:35:54.963Z,27.85
2023-04-21T08:38:29.868Z,29.77
2023-04-21T08:41:00.897Z,28.85
2023-04-21T08:43:30.434Z,28.05
2023-04-21T08:45:59.141Z,28.85
2023-04-21T08:48:29.115Z,27.55
2023-04-21T08:50:59.336Z,27.08
2023-04-21T08:53:28.209Z,28.40
2023-04-21T08:56:10.025Z,25.73
2023-04-21T08:58:39.946Z,27.58
2023-04-21T09:01:08.207Z,26.55
2023-04-21T09:03:36.603Z,24.95
2023-04-21T09:06:09.630Z,26.88
2023-04-21T09:08:40.137Z,25.08
2023-04-21T09:11:08.682Z,21.02
2023-04-21T09:13:38.304Z,23.05
2023-04-21T09:16:15.938Z,22.23
2023-04-21T09:18:45.315Z,24.05
2023-04-21T09:21:18.733Z,21.48
2023-04-21T09:23:48.928Z,22.65
2023-04-21T09:26:18.770Z,20.63
2023-04-21T09:28:48.614Z,16.80
2023-04-21T09:31:20.108Z,16.65
2023-04-21T09:36:23.438Z,16.95
2023-04-21T09:39:17.367Z,16.70
2023-04-21T09:41:46.329Z,17.10
2023-04-21T09:44:14.492Z,17.08
2023-04-21T09:46:45.041Z,17.00
2023-04-21T09:49:16.780Z,14.50
2023-04-21T09:56:55.098Z,16.63
2023-04-21T09:59:30.883Z,17.45
2023-04-21T10:02:01.229Z,17.52
2023-04-21T10:04:32.631Z,16.50
2023-04-21T10:07:02.974Z,15.90
2023-04-21T10:09:36.343Z,16.55
2023-04-21T10:12:09.033Z,15.82
2023-04-21T10:14:38.181Z,15.88
2023-04-21T10:17:08.353Z,18.65
2023-04-21T10:19:40.197Z,16.65
2023-04-21T10:22:11.074Z,18.40
2023-04-21T10:24:41.212Z,15.65
2023-04-21T10:27:12.649Z,16.73
2023-04-21T10:29:55.417Z,15.98
2023-04-21T10:32:34.400Z,17.48
2023-04-21T10:35:02.806Z,16.17
2023-04-21T10:37:34.237Z,18.10
2023-04-21T10:40:07.407Z,16.58
2023-04-21T10:42:37.913Z,17.23
2023-04-21T10:45:13.354Z,15.10
2023-04-21T10:47:49.390Z,16.15
2023-04-21T10:50:23.360Z,15.32
2023-04-21T10:52:59.610Z,17.30
2023-04-21T10:55:29.991Z,16.30
2023-04-21T10:57:59.347Z,14.90
2023-04-21T11:00:27.516Z,14.18
2023-04-21T11:03:01.204Z,13.50
2023-04-21T11:05:36.482Z,14.02
2023-04-21T11:08:12.868Z,15.02
2023-04-21T11:10:53.482Z,15.13
2023-04-21T11:13:26.594Z,15.95
2023-04-21T11:16:12.321Z,16.15
2023-04-21T11:18:43.041Z,15.20
2023-04-21T11:21:21.486Z,16.30
2023-04-21T11:23:52.511Z,13.98
2023-04-21T11:26:30.468Z,14.32
2023-04-21T11:29:02.028Z,13.88
2023-04-21T11:31:30.990Z,11.93
2023-04-21T11:34:00.665Z,13.45
2023-04-21T11:36:29.439Z,12.82
2023-04-21T11:38:59.506Z,12.85
2023-04-21T11:41:27.696Z,14.07
2023-04-21T11:43:56.517Z,13.68
2023-04-21T11:46:26.872Z,13.60
2023-04-21T11:49:02.345Z,13.05
2023-04-21T11:51:35.276Z,13.05
2023-04-21T11:54:07.340Z,12.02
2023-04-21T11:56:38.083Z,11.98
2023-04-21T11:59:09.969Z,11.57
2023-04-21T12:01:44.654Z,14.23
2023-04-21T12:04:17.305Z,13.32
2023-04-21T12:06:46.437Z,13.27
2023-04-21T12:09:21.037Z,13.57
2023-04-21T12:11:51.043Z,12.95
2023-04-21T12:14:21.539Z,12.45
2023-04-21T12:16:50.635Z,12.57
2023-04-21T12:19:24.620Z,11.65
2023-04-21T12:21:55.603Z,12.00
2023-04-21T12:24:25.876Z,12.20
2023-04-21T12:26:54.090Z,13.15
2023-04-21T12:29:22.314Z,14.43
2023-04-21T12:31:50.808Z,13.93
2023-04-21T12:34:18.925Z,14.95
2023-04-21T12:36:47.517Z,13.20
2023-04-21T12:39:17.632Z,13.32
2023-04-21T12:41:47.557Z,14.65
2023-04-21T12:44:16.008Z,12.35
2023-04-21T12:46:44.297Z,11.40
2023-04-21T12:49:12.465Z,12.38
2023-04-21T12:51:40.831Z,11.93
2023-04-21T12:54:09.151Z,11.98
2023-04-21T12:56:39.643Z,11.45
2023-04-21T12:59:10.787Z,12.80
2023-04-21T13:01:39.938Z,14.02
2023-04-21T13:04:09.257Z,12.10
2023-04-21T13:06:40.218Z,14.55
2023-04-21T13:09:08.637Z,13.63
2023-04-21T13:11:36.728Z,10.82
2023-04-21T13:14:05.425Z,11.07
2023-04-21T13:16:35.207Z,10.98
2023-04-21T13:19:04.196Z,9.52
2023-04-21T13:21:33.069Z,10.20
2023-04-21T13:24:02.227Z,8.55
2023-04-21T13:26:33.605Z,9.82
2023-04-21T13:29:02.649Z,9.98
2023-04-21T13:31:32.324Z,10.35
2023-04-21T13:34:02.845Z,11.27
2023-04-21T13:36:31.408Z,8.30
2023-04-21T13:39:01.551Z,9.95
2023-04-21T13:41:30.073Z,10.55
2023-04-21T13:43:58.256Z,11.55
2023-04-21T13:46:26.498Z,10.63
2023-04-21T13:48:55.273Z,10.70
2023-04-21T13:51:25.052Z,9.80
2023-04-21T13:53:53.189Z,12.05
2023-04-21T13:56:21.932Z,9.68
2023-04-21T13:58:50.538Z,10.10
2023-04-21T14:01:21.254Z,10.15
2023-04-21T14:03:50.892Z,10.50
2023-04-21T14:06:19.347Z,9.23
2023-04-21T14:08:48.866Z,9.10
2023-04-21T14:11:17.428Z,11.25
2023-04-21T14:14:04.498Z,8.13
2023-04-21T14:16:34.677Z,8.38
2023-04-21T14:19:03.570Z,10.15
2023-04-21T14:21:32.751Z,10.15
2023-04-21T14:24:02.668Z,8.32
2023-04-21T14:26:31.250Z,7.97
2023-04-21T14:29:00.597Z,9.57
2023-04-21T14:31:29.062Z,9.70
2023-04-21T14:33:57.710Z,8.32
2023-04-21T14:36:27.367Z,7.65
2023-04-21T14:38:56.112Z,8.23
2023-04-21T14:41:25.633Z,9.38
2023-04-21T14:43:56.794Z,12.25
2023-04-21T14:46:25.160Z,12.25
2023-04-21T14:48:53.317Z,13.05
2023-04-21T14:51:21.987Z,14.18
2023-04-21T14:53:50.489Z,15.50
2023-04-21T14:56:19.414Z,14.77
2023-04-21T14:58:49.302Z,13.02
2023-04-21T15:01:17.556Z,15.55
2023-04-21T15:03:46.302Z,15.90
2023-04-21T15:06:16.187Z,13.70
2023-04-21T15:08:44.493Z,14.68
2023-04-21T15:11:13.089Z,13.27
2023-04-21T15:13:41.332Z,11.18
2023-04-21T15:16:11.185Z,11.70
2023-04-21T15:18:39.432Z,11.35
2023-04-21T15:21:08.114Z,10.07
2023-04-21T15:23:36.611Z,11.10
2023-04-21T15:26:05.664Z,9.60
2023-04-21T15:28:35.589Z,9.60
2023-04-21T15:31:04.040Z,8.55
2023-04-21T15:33:33.809Z,10.88
2023-04-21T15:36:02.061Z,8.80
2023-04-21T15:38:30.530Z,8.60
2023-04-21T15:41:01.220Z,8.32
2023-04-21T15:43:30.364Z,9.45
2023-04-21T15:45:58.833Z,9.18
2023-04-21T15:48:27.150Z,9.27
2023-04-21T15:50:57.945Z,8.57
2023-04-21T15:53:26.205Z,10.23
2023-04-21T15:55:54.561Z,8.13
2023-04-21T15:58:22.842Z,8.80
2023-04-21T16:00:51.122Z,8.55
2023-04-21T16:03:19.634Z,9.93
2023-04-21T16:05:48.122Z,9.80
2023-04-21T16:08:18.247Z,9.73
2023-04-21T16:10:46.727Z,8.68
2023-04-21T16:13:14.913Z,8.75
2023-04-21T16:15:43.501Z,9.23
2023-04-21T16:18:11.892Z,10.85
2023-04-21T16:20:40.419Z,13.73
2023-04-21T16:23:08.752Z,15.80
2023-04-21T16:25:38.769Z,18.13
2023-04-21T16:28:07.609Z,15.77
2023-04-21T16:30:36.293Z,15.27
2023-04-21T16:33:04.630Z,21.27
2023-04-21T16:35:33.009Z,19.63
2023-04-21T16:38:01.380Z,19.45
2023-04-21T16:40:29.805Z,21.83
2023-04-21T16:42:59.328Z,20.55
2023-04-21T16:45:28.789Z,19.30
2023-04-21T16:47:57.519Z,20.55
2023-04-21T16:50:26.048Z,21.90
2023-04-21T16:52:54.414Z,20.63
2023-04-21T16:55:22.670Z,21.55
2023-04-21T16:57:50.824Z,19.90
2023-04-21T17:00:21.205Z,18.52
2023-04-21T17:02:49.626Z,19.10
2023-04-21T17:05:18.137Z,19.77
2023-04-21T17:07:46.351Z,18.88
2023-04-21T17:10:14.569Z,17.10
2023-04-21T17:12:43.225Z,20.67
2023-04-21T17:15:13.294Z,14.35
2023-04-21T17:17:44.957Z,15.90
2023-04-21T17:20:14.889Z,18.83
2023-04-21T17:22:44.040Z,19.90
2023-04-21T17:25:13.674Z,16.15
2023-04-21T17:27:41.926Z,17.67
2023-04-21T17:30:10.955Z,16.05
2023-04-21T17:32:40.636Z,14.68
2023-04-21T17:35:11.085Z,14.15
2023-04-21T17:37:39.400Z,12.20
2023-04-21T17:40:09.790Z,13.93
2023-04-21T17:42:38.217Z,13.10
2023-04-21T17:45:08.583Z,11.98
2023-04-21T17:47:37.104Z,12.90
2023-04-21T17:50:06.191Z,12.05
2023-04-21T17:52:35.797Z,13.68
2023-04-21T17:55:04.264Z,15.02
2023-04-21T17:57:32.672Z,16.52
2023-04-21T18:00:00.874Z,14.88
2023-04-21T18:02:29.224Z,14.43
2023-04-21T18:04:57.849Z,16.60
2023-04-21T18:07:26.200Z,17.10
2023-04-21T18:09:55.968Z,19.60
2023-04-21T18:12:24.652Z,18.50
2023-04-21T18:14:52.829Z,17.10
2023-04-21T18:17:23.303Z,18.33
2023-04-21T18:19:51.754Z,19.20
2023-04-21T18:22:19.957Z,19.65
2023-04-21T18:24:48.227Z,19.95
2023-04-21T18:27:18.424Z,19.10
2023-04-21T18:29:46.988Z,21.10
2023-04-21T18:32:15.223Z,21.20
2023-04-21T18:34:44.118Z,20.17
2023-04-21T18:37:12.334Z,19.52
2023-04-21T18:39:40.799Z,18.08
2023-04-21T18:42:09.098Z,19.48
2023-04-21T18:44:39.363Z,21.75
2023-04-21T18:47:08.027Z,19.95
2023-04-21T18:49:36.420Z,20.13
2023-04-21T18:52:04.538Z,21.63
2023-04-21T18:54:32.777Z,20.92
2023-04-21T18:57:01.445Z,21.48
2023-04-21T18:59:29.703Z,20.42
2023-04-21T19:02:00.331Z,22.55
2023-04-21T19:04:28.953Z,22.30
2023-04-21T19:06:57.224Z,22.02
2023-04-21T19:09:27.224Z,21.40
2023-04-21T19:11:56.057Z,22.60
2023-04-21T19:14:25.452Z,20.33
2023-04-21T19:16:54.047Z,22.20
2023-04-21T19:19:24.317Z,20.90
2023-04-21T19:21:52.495Z,23.60
2023-04-21T19:24:22.017Z,21.98
2023-04-21T19:26:50.300Z,20.65
2023-04-21T19:29:18.620Z,22.42
2023-04-21T19:31:46.863Z,20.27
2023-04-21T19:34:15.195Z,21.95
2023-04-21T19:36:45.352Z,22.08
2023-04-21T19:39:14.107Z,21.20
2023-04-21T19:41:42.688Z,19.33
2023-04-21T19:44:10.875Z,20.35
2023-04-21T19:46:42.513Z,20.75
2023-04-21T19:49:13.183Z,22.70
2023-04-21T19:51:41.558Z,20.02
2023-04-21T19:54:12.520Z,19.85
2023-04-21T19:56:41.108Z,22.20
2023-04-21T19:59:09.317Z,22.23
2023-04-21T20:01:37.805Z,21.33
2023-04-21T20:04:07.246Z,23.95
2023-04-21T20:06:36.023Z,23.08
2023-04-21T20:09:05.811Z,25.25
2023-04-21T20:11:35.501Z,23.08
2023-04-21T20:14:03.927Z,23.10
2023-04-21T20:16:32.927Z,21.95
2023-04-21T20:19:01.570Z,21.58
2023-04-21T20:21:29.966Z,20.75
2023-04-21T20:23:58.405Z,19.92
2023-04-21T20:26:26.772Z,19.67
2023-04-21T20:28:56.254Z,23.23
2023-04-21T20:31:25.550Z,22.40
2023-04-21T20:33:54.279Z,20.27
2023-04-21T20:36:22.518Z,21.15
2023-04-21T20:38:50.712Z,17.98
2023-04-21T20:41:19.617Z,19.40
2023-04-21T20:43:47.791Z,20.33
2023-04-21T20:46:17.861Z,21.42
2023-04-21T20:48:46.813Z,21.40
2023-04-21T20:51:14.954Z,20.98
2023-04-21T20:53:43.138Z,21.75
2023-04-21T20:56:11.479Z,22.10
2023-04-21T20:58:39.617Z,24.08
2023-04-21T21:01:08.818Z,21.90
2023-04-21T21:03:39.045Z,23.15
2023-04-21T21:06:07.639Z,23.50
2023-04-21T21:08:35.888Z,27.70
2023-04-21T21:11:05.238Z,25.58
2023-04-21T21:13:33.640Z,26.15
2023-04-21T21:16:01.881Z,26.63
2023-04-21T21:18:34.831Z,24.75
2023-04-21T21:21:06.660Z,25.27
2023-04-21T21:23:34.932Z,23.40
2023-04-21T21:26:03.302Z,24.20
2023-04-21T21:28:31.812Z,23.85
2023-04-21T21:30:59.970Z,26.60
2023-04-21T21:33:28.406Z,26.65
2023-04-21T21:35:56.775Z,28.08
2023-04-21T21:38:26.371Z,28.58
2023-04-21T21:40:54.703Z,26.25
2023-04-21T21:43:22.928Z,26.95
2023-04-21T21:45:51.181Z,27.77
2023-04-21T21:48:19.792Z,22.90
2023-04-21T21:50:48.272Z,24.40
2023-04-21T21:53:16.441Z,27.02
2023-04-21T21:55:46.193Z,22.15
2023-04-21T21:58:14.811Z,20.10
2023-04-21T22:00:42.958Z,21.35
2023-04-21T22:03:11.801Z,24.83
2023-04-21T22:05:40.136Z,23.33
2023-04-21T22:08:08.317Z,23.25
2023-04-21T22:10:36.755Z,24.45
2023-04-21T22:13:06.389Z,21.70
2023-04-21T22:15:37.056Z,21.48
2023-04-21T22:18:07.383Z,21.13
2023-04-21T22:20:35.686Z,28.17
2023-04-21T22:23:04.464Z,31.63
2023-04-21T22:25:32.901Z,25.92
2023-04-21T22:28:01.081Z,23.90
2023-04-21T22:30:31.190Z,24.92
2023-04-21T22:32:59.454Z,26.38
2023-04-21T22:35:27.758Z,26.83
2023-04-21T22:37:56.000Z,33.83
2023-04-21T22:40:24.514Z,67.75
2023-04-21T22:42:52.715Z,62.75
2023-04-21T22:45:21.003Z,235.57
2023-04-21T22:47:50.871Z,170.55
2023-04-21T22:50:19.856Z,33.38
2023-04-21T22:52:48.036Z,75.68
2023-04-21T22:55:16.714Z,54.15
2023-04-21T22:57:44.945Z,41.92
2023-04-21T23:00:13.818Z,47.45
2023-04-21T23:02:42.643Z,36.78
2023-04-21T23:05:12.449Z,39.33
2023-04-21T23:07:40.595Z,45.40
2023-04-21T23:10:09.360Z,43.85
2023-04-21T23:12:37.509Z,49.33
2023-04-21T23:15:06.666Z,47.17
2023-04-21T23:17:35.171Z,74.40
2023-04-21T23:20:05.469Z,75.80
2023-04-21T23:22:35.284Z,84.72
2023-04-21T23:25:03.794Z,87.35
2023-04-21T23:27:32.009Z,81.72
2023-04-21T23:30:00.580Z,93.65
2023-04-21T23:32:29.600Z,230.52
2023-04-21T23:34:57.845Z,147.60
2023-04-21T23:37:26.251Z,147.27
2023-04-21T23:39:56.099Z,144.98
2023-04-21T23:42:24.261Z,66.65
2023-04-21T23:44:52.405Z,179.80
2023-04-21T23:47:20.790Z,208.45
2023-04-21T23:49:48.966Z,169.52
2023-04-21T23:52:17.257Z,217.10
2023-04-21T23:54:45.899Z,191.27
2023-04-21T23:57:15.578Z,156.10
2023-04-21T23:59:43.719Z,44.17
